sensor_id;sensor_type;location;lat;lon;timestamp;P1;durP1;ratioP1;P2;durP2;ratioP2
37205;SDS011;23099;42.636;23.198;2023-07-31T00:01:38;7.78;;;4.07;;
37205;SDS011;23099;42.636;23.198;2023-07-31T00:04:06;10.82;;;4.90;;
37205;SDS011;23099;42.636;23.198;2023-07-31T00:06:33;9.80;;;4.43;;
37205;SDS011;23099;42.636;23.198;2023-07-31T00:09:00;8.50;;;4.30;;
37205;SDS011;23099;42.636;23.198;2023-07-31T00:11:26;9.07;;;4.32;;
37205;SDS011;23099;42.636;23.198;2023-07-31T00:13:53;8.32;;;4.63;;
37205;SDS011;23099;42.636;23.198;2023-07-31T00:16:20;9.90;;;4.13;;
37205;SDS011;23099;42.636;23.198;2023-07-31T00:18:47;9.35;;;4.45;;
37205;SDS011;23099;42.636;23.198;2023-07-31T00:21:15;12.43;;;4.35;;
37205;SDS011;23099;42.636;23.198;2023-07-31T00:23:41;8.40;;;4.20;;
37205;SDS011;23099;42.636;23.198;2023-07-31T00:26:08;10.52;;;4.43;;
37205;SDS011;23099;42.636;23.198;2023-07-31T00:28:35;9.32;;;4.25;;
37205;SDS011;23099;42.636;23.198;2023-07-31T00:31:01;7.30;;;4.00;;
37205;SDS011;23099;42.636;23.198;2023-07-31T00:33:29;6.88;;;3.80;;
37205;SDS011;23099;42.636;23.198;2023-07-31T00:35:57;6.03;;;4.00;;
37205;SDS011;23099;42.636;23.198;2023-07-31T00:38:25;5.97;;;3.80;;
37205;SDS011;23099;42.636;23.198;2023-07-31T00:40:52;7.40;;;4.28;;
37205;SDS011;23099;42.636;23.198;2023-07-31T00:43:18;9.10;;;4.32;;
37205;SDS011;23099;42.636;23.198;2023-07-31T00:45:45;10.77;;;4.10;;
37205;SDS011;23099;42.636;23.198;2023-07-31T00:48:12;11.18;;;3.67;;
37205;SDS011;23099;42.636;23.198;2023-07-31T00:50:39;7.80;;;4.25;;
37205;SDS011;23099;42.636;23.198;2023-07-31T00:53:06;5.50;;;3.85;;
37205;SDS011;23099;42.636;23.198;2023-07-31T00:55:34;7.93;;;4.15;;
37205;SDS011;23099;42.636;23.198;2023-07-31T00:58:01;8.23;;;4.32;;
37205;SDS011;23099;42.636;23.198;2023-07-31T01:00:27;7.03;;;4.50;;
37205;SDS011;23099;42.636;23.198;2023-07-31T01:02:54;14.10;;;8.88;;
37205;SDS011;23099;42.636;23.198;2023-07-31T01:05:23;12.32;;;5.97;;
37205;SDS011;23099;42.636;23.198;2023-07-31T01:07:56;10.55;;;6.07;;
37205;SDS011;23099;42.636;23.198;2023-07-31T01:10:30;12.38;;;7.22;;
37205;SDS011;23099;42.636;23.198;2023-07-31T01:13:06;11.55;;;7.40;;
37205;SDS011;23099;42.636;23.198;2023-07-31T01:15:34;15.32;;;8.80;;
37205;SDS011;23099;42.636;23.198;2023-07-31T01:18:00;15.05;;;10.55;;
37205;SDS011;23099;42.636;23.198;2023-07-31T01:20:27;12.88;;;9.75;;
37205;SDS011;23099;42.636;23.198;2023-07-31T01:23:16;14.63;;;11.20;;
37205;SDS011;23099;42.636;23.198;2023-07-31T01:25:59;14.77;;;11.63;;
37205;SDS011;23099;42.636;23.198;2023-07-31T01:28:33;16.83;;;12.20;;
37205;SDS011;23099;42.636;23.198;2023-07-31T01:31:12;15.85;;;12.68;;
37205;SDS011;23099;42.636;23.198;2023-07-31T01:33:42;16.75;;;12.13;;
37205;SDS011;23099;42.636;23.198;2023-07-31T01:36:08;16.50;;;13.10;;
37205;SDS011;23099;42.636;23.198;2023-07-31T01:38:36;18.70;;;14.48;;
37205;SDS011;23099;42.636;23.198;2023-07-31T01:41:04;19.65;;;13.65;;
37205;SDS011;23099;42.636;23.198;2023-07-31T01:43:31;20.92;;;14.57;;
37205;SDS011;23099;42.636;23.198;2023-07-31T01:45:57;17.45;;;14.45;;
37205;SDS011;23099;42.636;23.198;2023-07-31T01:48:24;19.38;;;14.20;;
37205;SDS011;23099;42.636;23.198;2023-07-31T01:50:51;20.30;;;16.08;;
37205;SDS011;23099;42.636;23.198;2023-07-31T01:53:18;21.73;;;16.13;;
37205;SDS011;23099;42.636;23.198;2023-07-31T01:55:44;25.83;;;19.95;;
37205;SDS011;23099;42.636;23.198;2023-07-31T01:58:12;30.42;;;25.77;;
37205;SDS011;23099;42.636;23.198;2023-07-31T02:00:39;30.13;;;24.85;;
37205;SDS011;23099;42.636;23.198;2023-07-31T02:03:06;35.78;;;29.52;;
37205;SDS011;23099;42.636;23.198;2023-07-31T02:05:32;35.85;;;27.90;;
37205;SDS011;23099;42.636;23.198;2023-07-31T02:07:59;35.63;;;29.40;;
37205;SDS011;23099;42.636;23.198;2023-07-31T02:10:26;34.58;;;28.05;;
37205;SDS011;23099;42.636;23.198;2023-07-31T02:12:52;35.00;;;29.17;;
37205;SDS011;23099;42.636;23.198;2023-07-31T02:15:20;33.63;;;27.05;;
37205;SDS011;23099;42.636;23.198;2023-07-31T02:17:47;37.42;;;28.58;;
37205;SDS011;23099;42.636;23.198;2023-07-31T02:20:14;39.50;;;30.27;;
37205;SDS011;23099;42.636;23.198;2023-07-31T02:22:40;34.25;;;28.63;;
37205;SDS011;23099;42.636;23.198;2023-07-31T02:25:08;32.13;;;27.75;;
37205;SDS011;23099;42.636;23.198;2023-07-31T02:27:34;37.47;;;31.00;;
37205;SDS011;23099;42.636;23.198;2023-07-31T02:30:01;36.83;;;29.52;;
37205;SDS011;23099;42.636;23.198;2023-07-31T02:32:29;38.58;;;31.48;;
37205;SDS011;23099;42.636;23.198;2023-07-31T02:34:56;37.13;;;30.95;;
37205;SDS011;23099;42.636;23.198;2023-07-31T02:37:22;39.03;;;30.23;;
37205;SDS011;23099;42.636;23.198;2023-07-31T02:39:49;41.20;;;30.92;;
37205;SDS011;23099;42.636;23.198;2023-07-31T02:42:16;39.60;;;31.20;;
37205;SDS011;23099;42.636;23.198;2023-07-31T02:44:43;44.65;;;33.50;;
37205;SDS011;23099;42.636;23.198;2023-07-31T02:47:09;40.88;;;32.10;;
37205;SDS011;23099;42.636;23.198;2023-07-31T02:49:37;39.88;;;32.25;;
37205;SDS011;23099;42.636;23.198;2023-07-31T02:52:04;39.53;;;31.48;;
37205;SDS011;23099;42.636;23.198;2023-07-31T02:54:31;40.20;;;31.23;;
37205;SDS011;23099;42.636;23.198;2023-07-31T02:56:58;43.25;;;32.53;;
37205;SDS011;23099;42.636;23.198;2023-07-31T02:59:24;39.58;;;32.17;;
37205;SDS011;23099;42.636;23.198;2023-07-31T03:01:51;38.78;;;30.48;;
37205;SDS011;23099;42.636;23.198;2023-07-31T03:04:18;38.25;;;29.88;;
37205;SDS011;23099;42.636;23.198;2023-07-31T03:06:46;39.78;;;31.20;;
37205;SDS011;23099;42.636;23.198;2023-07-31T03:09:12;39.78;;;33.10;;
37205;SDS011;23099;42.636;23.198;2023-07-31T03:11:39;38.80;;;30.48;;
37205;SDS011;23099;42.636;23.198;2023-07-31T03:14:06;43.67;;;32.85;;
37205;SDS011;23099;42.636;23.198;2023-07-31T03:16:32;42.90;;;32.85;;
37205;SDS011;23099;42.636;23.198;2023-07-31T03:18:59;44.25;;;32.70;;
37205;SDS011;23099;42.636;23.198;2023-07-31T03:21:26;43.05;;;32.90;;
37205;SDS011;23099;42.636;23.198;2023-07-31T03:23:54;42.55;;;33.38;;
37205;SDS011;23099;42.636;23.198;2023-07-31T03:26:20;42.72;;;31.83;;
37205;SDS011;23099;42.636;23.198;2023-07-31T03:28:47;42.40;;;31.63;;
37205;SDS011;23099;42.636;23.198;2023-07-31T03:31:14;41.30;;;31.02;;
37205;SDS011;23099;42.636;23.198;2023-07-31T03:33:41;40.90;;;30.75;;
37205;SDS011;23099;42.636;23.198;2023-07-31T03:36:08;42.97;;;31.83;;
37205;SDS011;23099;42.636;23.198;2023-07-31T03:38:34;46.97;;;33.10;;
37205;SDS011;23099;42.636;23.198;2023-07-31T03:41:02;43.38;;;32.65;;
37205;SDS011;23099;42.636;23.198;2023-07-31T03:43:31;42.75;;;31.75;;
37205;SDS011;23099;42.636;23.198;2023-07-31T03:45:58;47.45;;;33.55;;
37205;SDS011;23099;42.636;23.198;2023-07-31T03:48:25;43.13;;;31.83;;
37205;SDS011;23099;42.636;23.198;2023-07-31T03:50:52;44.65;;;33.58;;
37205;SDS011;23099;42.636;23.198;2023-07-31T03:53:19;45.97;;;32.33;;
37205;SDS011;23099;42.636;23.198;2023-07-31T03:55:45;44.35;;;32.88;;
37205;SDS011;23099;42.636;23.198;2023-07-31T03:58:13;45.60;;;32.80;;
37205;SDS011;23099;42.636;23.198;2023-07-31T04:00:40;47.10;;;33.17;;
37205;SDS011;23099;42.636;23.198;2023-07-31T04:03:07;47.70;;;32.92;;
37205;SDS011;23099;42.636;23.198;2023-07-31T04:05:37;41.47;;;30.17;;
37205;SDS011;23099;42.636;23.198;2023-07-31T04:08:05;49.03;;;33.92;;
37205;SDS011;23099;42.636;23.198;2023-07-31T04:10:32;47.28;;;33.17;;
37205;SDS011;23099;42.636;23.198;2023-07-31T04:12:58;45.72;;;33.25;;
37205;SDS011;23099;42.636;23.198;2023-07-31T04:15:27;44.05;;;31.85;;
37205;SDS011;23099;42.636;23.198;2023-07-31T04:17:53;44.53;;;31.15;;
37205;SDS011;23099;42.636;23.198;2023-07-31T04:20:20;45.08;;;32.83;;
37205;SDS011;23099;42.636;23.198;2023-07-31T04:22:47;46.40;;;31.88;;
37205;SDS011;23099;42.636;23.198;2023-07-31T04:25:14;43.37;;;32.00;;
37205;SDS011;23099;42.636;23.198;2023-07-31T04:27:41;45.78;;;32.83;;
37205;SDS011;23099;42.636;23.198;2023-07-31T04:30:09;45.08;;;31.83;;
37205;SDS011;23099;42.636;23.198;2023-07-31T04:32:37;48.95;;;32.65;;
37205;SDS011;23099;42.636;23.198;2023-07-31T04:35:04;42.75;;;29.33;;
37205;SDS011;23099;42.636;23.198;2023-07-31T04:37:31;41.72;;;29.70;;
37205;SDS011;23099;42.636;23.198;2023-07-31T04:39:58;43.38;;;30.27;;
37205;SDS011;23099;42.636;23.198;2023-07-31T04:42:24;42.90;;;30.30;;
37205;SDS011;23099;42.636;23.198;2023-07-31T04:44:51;39.25;;;28.90;;
37205;SDS011;23099;42.636;23.198;2023-07-31T04:47:18;38.38;;;27.35;;
37205;SDS011;23099;42.636;23.198;2023-07-31T04:49:47;38.42;;;27.73;;
37205;SDS011;23099;42.636;23.198;2023-07-31T04:52:13;37.92;;;27.60;;
37205;SDS011;23099;42.636;23.198;2023-07-31T04:54:40;42.28;;;28.95;;
37205;SDS011;23099;42.636;23.198;2023-07-31T04:57:07;39.47;;;27.35;;
37205;SDS011;23099;42.636;23.198;2023-07-31T04:59:33;32.40;;;25.30;;
37205;SDS011;23099;42.636;23.198;2023-07-31T05:02:00;30.00;;;23.25;;
37205;SDS011;23099;42.636;23.198;2023-07-31T05:04:27;25.20;;;20.52;;
37205;SDS011;23099;42.636;23.198;2023-07-31T05:06:55;26.85;;;20.45;;
37205;SDS011;23099;42.636;23.198;2023-07-31T05:09:21;28.60;;;22.65;;
37205;SDS011;23099;42.636;23.198;2023-07-31T05:11:48;32.22;;;24.40;;
37205;SDS011;23099;42.636;23.198;2023-07-31T05:14:15;30.25;;;22.95;;
37205;SDS011;23099;42.636;23.198;2023-07-31T05:16:41;34.10;;;24.67;;
37205;SDS011;23099;42.636;23.198;2023-07-31T05:19:08;34.97;;;26.23;;
37205;SDS011;23099;42.636;23.198;2023-07-31T05:21:35;31.23;;;24.42;;
37205;SDS011;23099;42.636;23.198;2023-07-31T05:24:03;24.88;;;19.35;;
37205;SDS011;23099;42.636;23.198;2023-07-31T05:26:30;26.25;;;21.08;;
37205;SDS011;23099;42.636;23.198;2023-07-31T05:28:56;27.15;;;21.45;;
37205;SDS011;23099;42.636;23.198;2023-07-31T05:31:23;28.58;;;21.70;;
37205;SDS011;23099;42.636;23.198;2023-07-31T05:33:51;26.75;;;21.38;;
37205;SDS011;23099;42.636;23.198;2023-07-31T05:36:17;27.98;;;21.02;;
37205;SDS011;23099;42.636;23.198;2023-07-31T05:38:44;25.90;;;20.42;;
37205;SDS011;23099;42.636;23.198;2023-07-31T05:41:12;23.83;;;19.50;;
37205;SDS011;23099;42.636;23.198;2023-07-31T05:43:39;24.50;;;18.65;;
37205;SDS011;23099;42.636;23.198;2023-07-31T05:46:06;22.10;;;16.92;;
37205;SDS011;23099;42.636;23.198;2023-07-31T05:48:34;21.48;;;17.13;;
37205;SDS011;23099;42.636;23.198;2023-07-31T05:51:01;20.52;;;16.67;;
37205;SDS011;23099;42.636;23.198;2023-07-31T05:53:27;22.55;;;16.75;;
37205;SDS011;23099;42.636;23.198;2023-07-31T05:55:54;17.85;;;14.10;;
37205;SDS011;23099;42.636;23.198;2023-07-31T05:58:22;18.13;;;12.52;;
37205;SDS011;23099;42.636;23.198;2023-07-31T06:00:49;18.90;;;14.65;;
37205;SDS011;23099;42.636;23.198;2023-07-31T06:03:16;16.25;;;13.00;;
37205;SDS011;23099;42.636;23.198;2023-07-31T06:05:42;17.70;;;12.43;;
37205;SDS011;23099;42.636;23.198;2023-07-31T06:08:09;18.58;;;12.35;;
37205;SDS011;23099;42.636;23.198;2023-07-31T06:10:36;15.73;;;10.90;;
37205;SDS011;23099;42.636;23.198;2023-07-31T06:13:02;13.70;;;8.02;;
37205;SDS011;23099;42.636;23.198;2023-07-31T06:15:31;12.65;;;8.43;;
37205;SDS011;23099;42.636;23.198;2023-07-31T06:17:57;13.73;;;9.10;;
37205;SDS011;23099;42.636;23.198;2023-07-31T06:20:27;11.52;;;8.07;;
37205;SDS011;23099;42.636;23.198;2023-07-31T06:22:53;14.18;;;8.80;;
37205;SDS011;23099;42.636;23.198;2023-07-31T06:25:20;7.88;;;5.00;;
37205;SDS011;23099;42.636;23.198;2023-07-31T06:27:47;9.93;;;7.03;;
37205;SDS011;23099;42.636;23.198;2023-07-31T06:30:14;8.88;;;5.80;;
37205;SDS011;23099;42.636;23.198;2023-07-31T06:32:42;8.70;;;5.47;;
37205;SDS011;23099;42.636;23.198;2023-07-31T06:35:08;10.63;;;6.40;;
37205;SDS011;23099;42.636;23.198;2023-07-31T06:37:35;9.43;;;6.90;;
37205;SDS011;23099;42.636;23.198;2023-07-31T06:40:02;12.63;;;7.72;;
37205;SDS011;23099;42.636;23.198;2023-07-31T06:42:30;13.50;;;8.20;;
37205;SDS011;23099;42.636;23.198;2023-07-31T06:44:57;12.95;;;7.53;;
37205;SDS011;23099;42.636;23.198;2023-07-31T06:47:24;12.23;;;7.53;;
37205;SDS011;23099;42.636;23.198;2023-07-31T06:49:52;9.80;;;5.65;;
37205;SDS011;23099;42.636;23.198;2023-07-31T06:52:18;8.60;;;5.50;;
37205;SDS011;23099;42.636;23.198;2023-07-31T06:54:56;10.05;;;6.45;;
37205;SDS011;23099;42.636;23.198;2023-07-31T06:57:27;7.63;;;5.38;;
37205;SDS011;23099;42.636;23.198;2023-07-31T06:59:54;8.73;;;4.53;;
37205;SDS011;23099;42.636;23.198;2023-07-31T07:02:21;7.28;;;3.80;;
37205;SDS011;23099;42.636;23.198;2023-07-31T07:04:48;5.93;;;3.53;;
37205;SDS011;23099;42.636;23.198;2023-07-31T07:07:17;6.47;;;2.90;;
37205;SDS011;23099;42.636;23.198;2023-07-31T07:09:44;5.65;;;2.10;;
37205;SDS011;23099;42.636;23.198;2023-07-31T07:12:10;4.70;;;2.35;;
37205;SDS011;23099;42.636;23.198;2023-07-31T07:14:37;5.20;;;2.40;;
37205;SDS011;23099;42.636;23.198;2023-07-31T07:17:04;5.07;;;1.90;;
37205;SDS011;23099;42.636;23.198;2023-07-31T07:19:31;3.27;;;1.43;;
37205;SDS011;23099;42.636;23.198;2023-07-31T07:21:58;5.30;;;1.75;;
37205;SDS011;23099;42.636;23.198;2023-07-31T07:24:27;3.63;;;1.60;;
37205;SDS011;23099;42.636;23.198;2023-07-31T07:26:54;5.13;;;1.65;;
37205;SDS011;23099;42.636;23.198;2023-07-31T07:29:21;3.88;;;1.52;;
37205;SDS011;23099;42.636;23.198;2023-07-31T07:31:48;2.95;;;1.20;;
37205;SDS011;23099;42.636;23.198;2023-07-31T07:34:14;5.38;;;1.60;;
37205;SDS011;23099;42.636;23.198;2023-07-31T07:36:41;3.30;;;1.55;;
37205;SDS011;23099;42.636;23.198;2023-07-31T07:39:08;3.67;;;1.23;;
37205;SDS011;23099;42.636;23.198;2023-07-31T07:41:37;6.43;;;1.88;;
37205;SDS011;23099;42.636;23.198;2023-07-31T07:44:04;3.75;;;1.50;;
37205;SDS011;23099;42.636;23.198;2023-07-31T07:46:30;2.72;;;1.05;;
37205;SDS011;23099;42.636;23.198;2023-07-31T07:48:57;4.25;;;1.48;;
37205;SDS011;23099;42.636;23.198;2023-07-31T07:51:24;2.83;;;1.20;;
37205;SDS011;23099;42.636;23.198;2023-07-31T07:53:50;3.30;;;1.35;;
37205;SDS011;23099;42.636;23.198;2023-07-31T07:56:17;4.10;;;1.50;;
37205;SDS011;23099;42.636;23.198;2023-07-31T07:58:45;2.95;;;1.05;;
37205;SDS011;23099;42.636;23.198;2023-07-31T08:01:14;2.50;;;1.10;;
37205;SDS011;23099;42.636;23.198;2023-07-31T08:03:41;3.33;;;1.15;;
37205;SDS011;23099;42.636;23.198;2023-07-31T08:06:08;3.75;;;1.60;;
37205;SDS011;23099;42.636;23.198;2023-07-31T08:08:35;5.85;;;1.20;;
37205;SDS011;23099;42.636;23.198;2023-07-31T08:11:02;3.35;;;1.23;;
37205;SDS011;23099;42.636;23.198;2023-07-31T08:13:29;2.80;;;1.10;;
37205;SDS011;23099;42.636;23.198;2023-07-31T08:15:57;3.75;;;1.25;;
37205;SDS011;23099;42.636;23.198;2023-07-31T08:18:24;4.32;;;1.70;;
37205;SDS011;23099;42.636;23.198;2023-07-31T08:20:50;3.75;;;1.30;;
37205;SDS011;23099;42.636;23.198;2023-07-31T08:23:17;5.35;;;1.67;;
37205;SDS011;23099;42.636;23.198;2023-07-31T08:45:45;6.13;;;1.40;;
37205;SDS011;23099;42.636;23.198;2023-07-31T08:48:13;3.35;;;1.38;;
37205;SDS011;23099;42.636;23.198;2023-07-31T08:50:42;3.47;;;1.17;;
37205;SDS011;23099;42.636;23.198;2023-07-31T08:53:09;3.70;;;1.20;;
37205;SDS011;23099;42.636;23.198;2023-07-31T08:55:36;3.15;;;1.10;;
37205;SDS011;23099;42.636;23.198;2023-07-31T08:58:04;3.40;;;1.33;;
37205;SDS011;23099;42.636;23.198;2023-07-31T09:00:31;3.23;;;1.10;;
37205;SDS011;23099;42.636;23.198;2023-07-31T09:03:01;4.68;;;1.10;;
37205;SDS011;23099;42.636;23.198;2023-07-31T09:05:30;3.22;;;0.98;;
37205;SDS011;23099;42.636;23.198;2023-07-31T09:07:58;4.47;;;1.05;;
37205;SDS011;23099;42.636;23.198;2023-07-31T09:10:28;3.33;;;1.27;;
37205;SDS011;23099;42.636;23.198;2023-07-31T09:12:55;3.55;;;1.40;;
37205;SDS011;23099;42.636;23.198;2023-07-31T09:15:22;3.47;;;1.00;;
37205;SDS011;23099;42.636;23.198;2023-07-31T09:17:52;2.80;;;1.10;;
37205;SDS011;23099;42.636;23.198;2023-07-31T09:20:26;3.20;;;1.15;;
37205;SDS011;23099;42.636;23.198;2023-07-31T09:25:21;4.20;;;1.55;;
37205;SDS011;23099;42.636;23.198;2023-07-31T09:58:57;4.35;;;1.40;;
37205;SDS011;23099;42.636;23.198;2023-07-31T10:01:24;3.88;;;1.55;;
37205;SDS011;23099;42.636;23.198;2023-07-31T10:03:51;3.30;;;1.55;;
37205;SDS011;23099;42.636;23.198;2023-07-31T10:06:18;4.57;;;1.33;;
37205;SDS011;23099;42.636;23.198;2023-07-31T10:08:45;3.92;;;1.48;;
37205;SDS011;23099;42.636;23.198;2023-07-31T10:11:16;3.78;;;1.40;;
37205;SDS011;23099;42.636;23.198;2023-07-31T10:13:43;3.20;;;1.10;;
37205;SDS011;23099;42.636;23.198;2023-07-31T10:18:41;3.10;;;1.00;;
37205;SDS011;23099;42.636;23.198;2023-07-31T10:21:09;2.58;;;0.90;;
37205;SDS011;23099;42.636;23.198;2023-07-31T10:23:37;3.72;;;1.02;;
37205;SDS011;23099;42.636;23.198;2023-07-31T10:26:05;2.28;;;0.90;;
37205;SDS011;23099;42.636;23.198;2023-07-31T10:28:34;2.90;;;0.90;;
37205;SDS011;23099;42.636;23.198;2023-07-31T10:31:02;2.60;;;0.93;;
37205;SDS011;23099;42.636;23.198;2023-07-31T10:33:31;2.55;;;0.90;;
37205;SDS011;23099;42.636;23.198;2023-07-31T10:36:14;3.78;;;0.93;;
37205;SDS011;23099;42.636;23.198;2023-07-31T10:38:43;2.97;;;0.90;;
37205;SDS011;23099;42.636;23.198;2023-07-31T10:41:10;5.15;;;0.90;;
37205;SDS011;23099;42.636;23.198;2023-07-31T10:43:36;2.40;;;0.95;;
37205;SDS011;23099;42.636;23.198;2023-07-31T10:46:07;3.00;;;1.30;;
37205;SDS011;23099;42.636;23.198;2023-07-31T10:48:36;2.42;;;1.00;;
37205;SDS011;23099;42.636;23.198;2023-07-31T10:51:06;2.88;;;0.90;;
37205;SDS011;23099;42.636;23.198;2023-07-31T10:53:35;2.90;;;0.95;;
37205;SDS011;23099;42.636;23.198;2023-07-31T10:56:02;2.88;;;0.98;;
37205;SDS011;23099;42.636;23.198;2023-07-31T11:00:58;2.85;;;0.95;;
37205;SDS011;23099;42.636;23.198;2023-07-31T11:03:26;2.72;;;0.90;;
37205;SDS011;23099;42.636;23.198;2023-07-31T11:06:08;2.92;;;0.90;;
37205;SDS011;23099;42.636;23.198;2023-07-31T11:08:35;2.53;;;1.00;;
37205;SDS011;23099;42.636;23.198;2023-07-31T11:11:08;4.30;;;0.75;;
37205;SDS011;23099;42.636;23.198;2023-07-31T11:13:39;2.47;;;0.73;;
37205;SDS011;23099;42.636;23.198;2023-07-31T11:16:07;3.03;;;0.80;;
37205;SDS011;23099;42.636;23.198;2023-07-31T11:18:34;1.95;;;0.73;;
37205;SDS011;23099;42.636;23.198;2023-07-31T11:21:01;3.25;;;0.80;;
37205;SDS011;23099;42.636;23.198;2023-07-31T11:23:30;2.40;;;0.80;;
37205;SDS011;23099;42.636;23.198;2023-07-31T11:25:59;3.15;;;0.95;;
37205;SDS011;23099;42.636;23.198;2023-07-31T11:28:30;2.50;;;0.80;;
37205;SDS011;23099;42.636;23.198;2023-07-31T11:30:58;2.50;;;0.93;;
37205;SDS011;23099;42.636;23.198;2023-07-31T11:33:25;2.75;;;0.80;;
37205;SDS011;23099;42.636;23.198;2023-07-31T11:35:52;2.28;;;0.80;;
37205;SDS011;23099;42.636;23.198;2023-07-31T11:38:22;2.33;;;0.80;;
37205;SDS011;23099;42.636;23.198;2023-07-31T11:40:51;2.97;;;1.20;;
37205;SDS011;23099;42.636;23.198;2023-07-31T11:43:18;3.10;;;1.10;;
37205;SDS011;23099;42.636;23.198;2023-07-31T11:45:46;2.53;;;0.90;;
37205;SDS011;23099;42.636;23.198;2023-07-31T11:48:21;4.05;;;1.15;;
37205;SDS011;23099;42.636;23.198;2023-07-31T11:50:49;3.00;;;1.10;;
37205;SDS011;23099;42.636;23.198;2023-07-31T11:53:17;3.55;;;1.15;;
37205;SDS011;23099;42.636;23.198;2023-07-31T11:55:47;6.03;;;1.10;;
37205;SDS011;23099;42.636;23.198;2023-07-31T11:58:15;3.35;;;1.30;;
37205;SDS011;23099;42.636;23.198;2023-07-31T12:00:43;4.57;;;1.30;;
37205;SDS011;23099;42.636;23.198;2023-07-31T12:03:11;3.83;;;1.30;;
37205;SDS011;23099;42.636;23.198;2023-07-31T12:05:38;5.13;;;1.60;;
37205;SDS011;23099;42.636;23.198;2023-07-31T12:08:08;3.97;;;1.42;;
37205;SDS011;23099;42.636;23.198;2023-07-31T12:10:35;3.40;;;1.70;;
37205;SDS011;23099;42.636;23.198;2023-07-31T12:13:02;5.97;;;1.90;;
37205;SDS011;23099;42.636;23.198;2023-07-31T12:15:35;3.70;;;1.95;;
37205;SDS011;23099;42.636;23.198;2023-07-31T12:18:05;3.90;;;2.58;;
37205;SDS011;23099;42.636;23.198;2023-07-31T12:20:32;6.82;;;2.33;;
37205;SDS011;23099;42.636;23.198;2023-07-31T12:23:00;3.88;;;2.30;;
37205;SDS011;23099;42.636;23.198;2023-07-31T12:25:30;4.50;;;2.60;;
37205;SDS011;23099;42.636;23.198;2023-07-31T12:27:58;5.53;;;2.67;;
37205;SDS011;23099;42.636;23.198;2023-07-31T12:30:32;4.80;;;2.78;;
37205;SDS011;23099;42.636;23.198;2023-07-31T12:33:06;5.68;;;3.95;;
37205;SDS011;23099;42.636;23.198;2023-07-31T12:35:36;7.07;;;4.90;;
37205;SDS011;23099;42.636;23.198;2023-07-31T12:38:04;6.95;;;4.55;;
37205;SDS011;23099;42.636;23.198;2023-07-31T12:40:31;7.13;;;4.57;;
37205;SDS011;23099;42.636;23.198;2023-07-31T12:42:57;7.28;;;4.82;;
37205;SDS011;23099;42.636;23.198;2023-07-31T12:45:26;6.05;;;4.32;;
37205;SDS011;23099;42.636;23.198;2023-07-31T12:47:53;5.95;;;4.18;;
37205;SDS011;23099;42.636;23.198;2023-07-31T12:50:21;6.30;;;4.47;;
37205;SDS011;23099;42.636;23.198;2023-07-31T12:52:48;6.32;;;4.75;;
37205;SDS011;23099;42.636;23.198;2023-07-31T12:55:15;5.95;;;4.47;;
37205;SDS011;23099;42.636;23.198;2023-07-31T12:57:43;6.95;;;5.00;;
37205;SDS011;23099;42.636;23.198;2023-07-31T13:00:10;5.78;;;4.28;;
37205;SDS011;23099;42.636;23.198;2023-07-31T13:02:38;7.72;;;4.80;;
37205;SDS011;23099;42.636;23.198;2023-07-31T13:05:05;11.93;;;5.13;;
37205;SDS011;23099;42.636;23.198;2023-07-31T13:07:34;7.83;;;6.00;;
37205;SDS011;23099;42.636;23.198;2023-07-31T13:12:27;7.22;;;5.88;;
37205;SDS011;23099;42.636;23.198;2023-07-31T13:14:53;7.80;;;5.78;;
37205;SDS011;23099;42.636;23.198;2023-07-31T13:17:20;7.30;;;5.22;;
37205;SDS011;23099;42.636;23.198;2023-07-31T13:19:47;6.30;;;4.88;;
37205;SDS011;23099;42.636;23.198;2023-07-31T13:22:14;8.40;;;5.55;;
37205;SDS011;23099;42.636;23.198;2023-07-31T13:24:42;11.93;;;4.88;;
37205;SDS011;23099;42.636;23.198;2023-07-31T13:29:35;6.63;;;5.22;;
37205;SDS011;23099;42.636;23.198;2023-07-31T13:32:02;7.38;;;4.90;;
37205;SDS011;23099;42.636;23.198;2023-07-31T13:34:29;5.75;;;4.63;;
37205;SDS011;23099;42.636;23.198;2023-07-31T13:36:56;6.82;;;4.93;;
37205;SDS011;23099;42.636;23.198;2023-07-31T13:39:22;7.32;;;4.53;;
37205;SDS011;23099;42.636;23.198;2023-07-31T13:41:50;7.68;;;4.30;;
37205;SDS011;23099;42.636;23.198;2023-07-31T13:46:43;6.55;;;4.15;;
37205;SDS011;23099;42.636;23.198;2023-07-31T13:49:10;7.63;;;4.15;;
37205;SDS011;23099;42.636;23.198;2023-07-31T13:51:37;5.72;;;3.50;;
37205;SDS011;23099;42.636;23.198;2023-07-31T13:54:04;5.78;;;3.60;;
37205;SDS011;23099;42.636;23.198;2023-07-31T13:56:32;6.85;;;3.47;;
37205;SDS011;23099;42.636;23.198;2023-07-31T13:59:00;6.55;;;3.53;;
37205;SDS011;23099;42.636;23.198;2023-07-31T14:03:53;5.05;;;3.30;;
37205;SDS011;23099;42.636;23.198;2023-07-31T14:06:20;6.95;;;3.35;;
37205;SDS011;23099;42.636;23.198;2023-07-31T14:08:47;5.13;;;3.28;;
37205;SDS011;23099;42.636;23.198;2023-07-31T14:11:14;5.47;;;3.08;;
37205;SDS011;23099;42.636;23.198;2023-07-31T14:13:41;5.35;;;3.33;;
37205;SDS011;23099;42.636;23.198;2023-07-31T14:16:09;4.68;;;2.88;;
37205;SDS011;23099;42.636;23.198;2023-07-31T14:21:02;4.10;;;2.60;;
37205;SDS011;23099;42.636;23.198;2023-07-31T14:23:29;4.93;;;2.90;;
37205;SDS011;23099;42.636;23.198;2023-07-31T14:25:55;5.38;;;2.58;;
37205;SDS011;23099;42.636;23.198;2023-07-31T14:28:22;5.53;;;3.03;;
37205;SDS011;23099;42.636;23.198;2023-07-31T14:30:49;5.25;;;2.72;;
37205;SDS011;23099;42.636;23.198;2023-07-31T14:33:17;4.95;;;2.83;;
37205;SDS011;23099;42.636;23.198;2023-07-31T14:38:10;4.38;;;2.53;;
37205;SDS011;23099;42.636;23.198;2023-07-31T14:40:37;4.88;;;2.10;;
37205;SDS011;23099;42.636;23.198;2023-07-31T14:43:04;5.40;;;2.67;;
37205;SDS011;23099;42.636;23.198;2023-07-31T14:45:30;4.22;;;2.65;;
37205;SDS011;23099;42.636;23.198;2023-07-31T14:47:57;6.55;;;2.50;;
37205;SDS011;23099;42.636;23.198;2023-07-31T14:50:26;7.28;;;3.03;;
37205;SDS011;23099;42.636;23.198;2023-07-31T14:52:52;4.22;;;2.40;;
37205;SDS011;23099;42.636;23.198;2023-07-31T14:55:19;7.97;;;2.53;;
37205;SDS011;23099;42.636;23.198;2023-07-31T14:57:46;5.13;;;2.20;;
37205;SDS011;23099;42.636;23.198;2023-07-31T15:00:13;4.55;;;2.33;;
37205;SDS011;23099;42.636;23.198;2023-07-31T15:02:40;4.50;;;2.38;;
37205;SDS011;23099;42.636;23.198;2023-07-31T15:05:07;4.30;;;2.10;;
37205;SDS011;23099;42.636;23.198;2023-07-31T15:07:36;5.90;;;2.33;;
37205;SDS011;23099;42.636;23.198;2023-07-31T15:12:29;3.78;;;1.98;;
37205;SDS011;23099;42.636;23.198;2023-07-31T15:14:56;5.15;;;2.17;;
37205;SDS011;23099;42.636;23.198;2023-07-31T15:17:22;5.82;;;2.15;;
37205;SDS011;23099;42.636;23.198;2023-07-31T15:19:49;3.58;;;1.83;;
37205;SDS011;23099;42.636;23.198;2023-07-31T15:22:16;3.67;;;2.08;;
37205;SDS011;23099;42.636;23.198;2023-07-31T15:24:44;3.50;;;1.50;;
37205;SDS011;23099;42.636;23.198;2023-07-31T15:29:37;3.85;;;1.63;;
37205;SDS011;23099;42.636;23.198;2023-07-31T15:32:04;3.85;;;1.45;;
37205;SDS011;23099;42.636;23.198;2023-07-31T15:34:32;5.20;;;1.65;;
37205;SDS011;23099;42.636;23.198;2023-07-31T15:36:58;6.65;;;1.60;;
37205;SDS011;23099;42.636;23.198;2023-07-31T15:39:25;4.93;;;1.25;;
37205;SDS011;23099;42.636;23.198;2023-07-31T15:41:53;2.75;;;1.20;;
37205;SDS011;23099;42.636;23.198;2023-07-31T15:46:47;2.70;;;1.13;;
37205;SDS011;23099;42.636;23.198;2023-07-31T15:49:13;4.13;;;1.08;;